Time;durP1;ratioP1;P1;durP2;ratioP2;P2;SDS_P1;SDS_P2;PMS_P1;PMS_P2;Temp;Humidity;BMP_temperature;BMP_pressure;BME280_temperature;BME280_humidity;BME280_pressure;Samples;Min_cycle;Max_cycle;Signal;HPM_P1;HPM_P2
2021/12/12 00:00:30;;;;;;;;;17.75;14.75;;;;;9.53;71.08;102012.09;5024929;28;46420;-60
2021/12/12 00:03:03;;;;;;;;;17.25;14.50;;;;;9.54;71.22;102012.97;5029496;28;45524;-59
2021/12/12 00:05:37;;;;;;;;;18.00;16.00;;;;;9.54;71.46;102005.91;5027768;28;45469;-59
2021/12/12 00:08:05;;;;;;;;;22.00;16.75;;;;;9.52;71.32;101990.19;5045486;28;45618;-59
2021/12/12 00:10:35;;;;;;;;;19.00;15.50;;;;;9.52;71.64;101992.84;5027249;28;45407;-58
2021/12/12 00:13:10;;;;;;;;;21.00;12.25;;;;;9.50;71.66;101997.28;5030155;28;45275;-59
2021/12/12 00:15:36;;;;;;;;;23.50;16.75;;;;;9.48;72.15;101995.63;5028434;28;45454;-59
2021/12/12 00:18:04;;;;;;;;;16.75;13.75;;;;;9.46;72.15;101995.66;5029482;28;45308;-57
2021/12/12 00:20:30;;;;;;;;;20.25;17.75;;;;;9.43;72.80;101993.16;5024001;28;46022;-58
2021/12/12 00:23:01;;;;;;;;;24.50;17.25;;;;;9.42;72.40;101986.19;5026260;28;45600;-58
2021/12/12 00:25:38;;;;;;;;;18.50;13.75;;;;;9.41;73.01;101981.84;5007678;28;45483;-58
2021/12/12 00:28:05;;;;;;;;;19.50;17.50;;;;;9.38;72.69;101983.69;5024218;28;45412;-59
2021/12/12 00:30:32;;;;;;;;;26.50;17.00;;;;;9.30;73.04;101981.31;5025666;28;45442;-59
2021/12/12 00:32:59;;;;;;;;;19.75;17.75;;;;;9.29;73.51;101987.50;5026907;28;45458;-58
2021/12/12 00:35:25;;;;;;;;;22.25;17.25;;;;;9.29;73.34;101992.75;5025432;28;45290;-59
2021/12/12 00:37:58;;;;;;;;;23.25;17.00;;;;;9.28;74.00;101991.03;5029262;28;45419;-58
2021/12/12 00:40:43;;;;;;;;;17.25;17.00;;;;;9.30;73.69;101996.25;5026447;28;45476;-58
2021/12/12 00:43:34;;;;;;;;;14.75;14.50;;;;;9.30;74.10;101998.88;5029382;28;45399;-59
2021/12/12 00:46:06;;;;;;;;;18.75;13.75;;;;;9.30;74.26;101993.63;5026903;28;45379;-58
2021/12/12 00:48:34;;;;;;;;;18.25;17.00;;;;;9.29;73.94;101989.28;5029893;28;45501;-59
2021/12/12 00:51:04;;;;;;;;;25.00;19.25;;;;;9.29;74.42;101986.66;5036754;28;46053;-58
2021/12/12 00:53:31;;;;;;;;;20.75;19.75;;;;;9.32;74.68;101990.03;5030354;28;46351;-59
2021/12/12 00:55:59;;;;;;;;;25.50;18.00;;;;;9.30;74.25;101985.72;5036770;28;45363;-59
2021/12/12 00:58:26;;;;;;;;;18.25;13.00;;;;;9.28;74.25;101988.41;5034709;28;45383;-58
2021/12/12 01:01:16;;;;;;;;;24.75;20.00;;;;;9.28;74.34;101985.78;5036946;28;46125;-58
2021/12/12 01:03:50;;;;;;;;;22.75;17.00;;;;;9.27;74.24;101989.31;5039331;28;45266;-59
2021/12/12 01:06:17;;;;;;;;;14.50;13.25;;;;;9.23;74.72;101980.66;5037874;28;45327;-58
2021/12/12 01:08:45;;;;;;;;;23.25;15.50;;;;;9.23;75.17;101987.69;5040396;28;45335;-58
2021/12/12 01:11:26;;;;;;;;;16.75;11.50;;;;;9.25;75.00;101979.78;5036636;28;45648;-59
2021/12/12 01:13:52;;;;;;;;;16.25;13.00;;;;;9.26;74.96;101981.50;5039500;28;45379;-59
2021/12/12 01:16:24;;;;;;;;;17.25;15.25;;;;;9.24;75.23;101976.25;5036907;28;45500;-58
2021/12/12 01:18:58;;;;;;;;;17.25;15.75;;;;;9.23;75.28;101985.06;5039732;28;45433;-59
2021/12/12 01:21:36;;;;;;;;;22.00;12.75;;;;;9.23;75.75;101978.03;5038709;28;45485;-59
2021/12/12 01:24:16;;;;;;;;;16.25;14.50;;;;;9.25;75.42;101985.91;5017559;28;45252;-58
2021/12/12 01:26:43;;;;;;;;;17.00;13.50;;;;;9.25;75.62;101990.31;5030489;28;45351;-58
2021/12/12 01:29:09;;;;;;;;;11.75;11.50;;;;;9.25;75.30;101987.69;5034458;28;45307;-58
2021/12/12 01:31:45;;;;;;;;;16.00;11.00;;;;;9.22;75.78;101984.22;5023662;28;45586;-58
2021/12/12 01:34:14;;;;;;;;;12.00;11.75;;;;;9.23;75.35;101987.69;5022430;28;45554;-58
2021/12/12 01:37:09;;;;;;;;;14.50;11.50;;;;;9.22;75.93;101994.72;5022319;28;45433;-57
2021/12/12 01:39:42;;;;;;;;;10.50;10.50;;;;;9.26;76.02;102000.75;5022573;28;45850;-58
2021/12/12 01:42:20;;;;;;;;;12.00;10.25;;;;;9.28;75.89;101995.44;5031694;28;46130;-57
2021/12/12 01:45:05;;;;;;;;;12.50;9.25;;;;;9.28;75.53;101993.69;5009456;28;45439;-57
2021/12/12 01:47:39;;;;;;;;;14.75;12.50;;;;;9.22;75.79;101992.09;5010162;28;45415;-58
2021/12/12 01:50:11;;;;;;;;;13.50;12.50;;;;;9.25;76.14;102000.81;5022438;28;45312;-56
2021/12/12 01:52:37;;;;;;;;;13.25;12.00;;;;;9.28;75.71;102005.97;5021713;28;45732;-58
2021/12/12 01:55:26;;;;;;;;;15.00;9.25;;;;;9.30;75.70;102002.38;5022412;28;45422;-58
2021/12/12 01:57:56;;;;;;;;;11.00;11.00;;;;;9.31;75.61;102001.44;5022618;28;45371;-58
2021/12/12 02:00:36;;;;;;;;;11.25;11.25;;;;;9.33;75.86;102011.94;5022380;28;45177;-58
2021/12/12 02:03:04;;;;;;;;;14.50;11.50;;;;;9.31;75.78;102006.72;5021801;28;46518;-58
2021/12/12 02:05:31;;;;;;;;;11.75;9.25;;;;;9.32;76.28;102015.44;5022047;28;45340;-58
2021/12/12 02:08:04;;;;;;;;;9.50;8.00;;;;;9.34;75.93;102021.53;5022351;28;45326;-58
2021/12/12 02:10:36;;;;;;;;;10.50;9.25;;;;;9.34;76.43;102019.78;5022365;28;45253;-58
2021/12/12 02:13:04;;;;;;;;;14.00;12.00;;;;;9.36;76.38;102019.72;5021643;28;46167;-58
2021/12/12 02:15:33;;;;;;;;;16.00;8.50;;;;;9.38;76.08;102025.78;5021449;28;45367;-58
2021/12/12 02:17:59;;;;;;;;;12.00;10.75;;;;;9.40;76.45;102021.31;5018048;28;45340;-59
2021/12/12 02:20:36;;;;;;;;;11.25;11.00;;;;;9.42;75.92;102024.78;5001990;28;45344;-58
2021/12/12 02:23:15;;;;;;;;;8.50;7.00;;;;;9.43;76.39;102026.50;5014160;28;45455;-58
2021/12/12 02:36:51;;;;;;;;;6.00;5.75;;;;;9.47;75.82;102023.69;5025031;28;45405;-58
2021/12/12 02:39:17;;;;;;;;;10.50;7.00;;;;;9.49;76.19;102029.78;5020864;28;45534;-58
2021/12/12 02:41:56;;;;;;;;;6.75;6.50;;;;;9.50;76.30;102028.00;5020664;28;45455;-58
2021/12/12 02:44:28;;;;;;;;;9.50;8.00;;;;;9.51;75.96;102030.56;5020651;28;45380;-58
2021/12/12 02:46:57;;;;;;;;;8.00;8.00;;;;;9.52;76.72;102032.28;5021070;28;45348;-58
2021/12/12 02:50:13;;;;;;;;;7.25;7.00;;;;;9.56;76.42;102035.69;5021593;28;45587;-58
2021/12/12 02:52:16;;;;;;;;;7.75;7.00;;;;;9.57;76.57;102040.03;5006785;28;45603;-57
2021/12/12 02:54:42;;;;;;;;;11.50;7.00;;;;;9.57;76.04;102037.41;5020424;28;45442;-58
2021/12/12 02:57:09;;;;;;;;;7.75;7.25;;;;;9.58;76.64;102036.50;5018150;28;45385;-58
2021/12/12 02:59:36;;;;;;;;;1.50;1.00;;;;;9.58;76.38;102041.75;5014267;28;45209;-58
2021/12/12 03:02:12;;;;;;;;;8.00;7.25;;;;;9.59;76.33;102045.25;5021172;28;45464;-58
2021/12/12 03:04:39;;;;;;;;;6.50;6.50;;;;;9.61;76.79;102046.03;5020923;28;45411;-57
2021/12/12 03:07:07;;;;;;;;;4.50;4.50;;;;;9.60;76.66;102052.22;5021232;28;45487;-55
2021/12/12 03:09:42;;;;;;;;;10.00;6.50;;;;;9.60;76.86;102045.19;5021142;28;45343;-57
2021/12/12 03:12:33;;;;;;;;;8.00;6.75;;;;;9.60;76.52;102045.19;5021566;28;45376;-57
2021/12/12 03:15:23;;;;;;;;;6.75;6.25;;;;;9.63;76.94;102049.47;5020943;28;45416;-58
2021/12/12 03:17:53;;;;;;;;;7.50;7.00;;;;;9.61;76.47;102041.63;5021187;28;45347;-57
2021/12/12 03:20:26;;;;;;;;;7.25;6.00;;;;;9.61;76.98;102046.03;5021465;28;45292;-57
2021/12/12 03:23:18;;;;;;;;;7.50;7.50;;;;;9.58;76.84;102044.38;5021133;28;45419;-58
2021/12/12 03:25:47;;;;;;;;;8.50;5.75;;;;;9.60;76.64;102039.06;5010719;28;45546;-58
2021/12/12 03:28:17;;;;;;;;;5.50;5.50;;;;;9.61;76.52;102041.63;5021011;28;45326;-58
2021/12/12 03:30:46;;;;;;;;;4.50;4.50;;;;;9.64;76.62;102044.19;5021143;28;45320;-56
2021/12/12 03:33:12;;;;;;;;;6.25;6.00;;;;;9.65;77.00;102042.41;5021098;28;45515;-57
2021/12/12 03:35:38;;;;;;;;;6.75;5.50;;;;;9.67;76.93;102035.31;5020618;28;45236;-57
2021/12/12 03:38:05;;;;;;;;;4.25;3.00;;;;;9.68;76.66;102040.50;5020986;28;45448;-58
2021/12/12 03:40:36;;;;;;;;;6.25;4.00;;;;;9.70;76.64;102040.44;5021273;28;45482;-57
2021/12/12 03:43:05;;;;;;;;;8.00;6.25;;;;;9.70;76.82;102036.03;5020914;28;45549;-58
2021/12/12 03:45:32;;;;;;;;;3.25;3.25;;;;;9.73;76.78;102040.38;5020564;28;46315;-58
2021/12/12 03:48:13;;;;;;;;;6.75;6.00;;;;;9.74;77.00;102039.44;5020550;28;45423;-58
2021/12/12 03:50:42;;;;;;;;;8.25;4.50;;;;;9.74;76.69;102048.19;5020640;28;45325;-57
2021/12/12 03:53:08;;;;;;;;;7.50;7.00;;;;;9.76;76.56;102048.13;5020392;28;45257;-57
2021/12/12 03:55:35;;;;;;;;;7.75;6.75;;;;;9.78;76.91;102051.56;5020285;28;46249;-57
2021/12/12 03:58:04;;;;;;;;;9.00;7.75;;;;;9.79;76.76;102051.53;5020752;28;45299;-57
2021/12/12 04:00:36;;;;;;;;;2.25;2.25;;;;;9.78;76.63;102048.94;5020901;28;45296;-58
2021/12/12 04:03:02;;;;;;;;;9.75;8.25;;;;;9.77;76.84;102041.97;5020859;28;45335;-58
2021/12/12 04:05:28;;;;;;;;;8.00;6.00;;;;;9.77;76.83;102048.09;5019920;28;45312;-58
2021/12/12 04:07:54;;;;;;;;;6.75;5.00;;;;;9.79;76.96;102046.28;5020702;28;45348;-57
2021/12/12 04:10:23;;;;;;;;;7.00;6.00;;;;;9.83;76.68;102054.06;5020619;28;45534;-58
2021/12/12 04:12:49;;;;;;;;;6.50;4.00;;;;;9.86;76.75;102056.56;5020540;28;45516;-56
2021/12/12 04:15:16;;;;;;;;;6.25;6.25;;;;;9.88;76.83;102066.16;5019953;28;45346;-58
2021/12/12 04:17:42;;;;;;;;;7.25;7.25;;;;;9.90;76.71;102059.03;5020523;28;45308;-58
2021/12/12 04:20:31;;;;;;;;;6.75;6.75;;;;;9.92;77.12;102062.47;5020584;28;45261;-57
2021/12/12 04:22:57;;;;;;;;;10.50;7.00;;;;;9.93;77.06;102058.94;5019991;28;45884;-58
2021/12/12 04:25:23;;;;;;;;;7.50;7.50;;;;;9.95;76.82;102064.13;5019827;28;46128;-58
2021/12/12 04:27:51;;;;;;;;;11.25;8.50;;;;;9.96;76.69;102058.84;5020373;28;45346;-58
2021/12/12 04:30:17;;;;;;;;;8.50;8.00;;;;;9.97;76.61;102065.81;5020318;28;45288;-58
2021/12/12 04:32:44;;;;;;;;;8.00;7.50;;;;;9.98;76.77;102066.66;5020129;28;45609;-58
2021/12/12 04:35:15;;;;;;;;;7.00;4.50;;;;;9.96;76.42;102072.00;5019869;28;45356;-58
2021/12/12 04:37:41;;;;;;;;;7.00;7.00;;;;;9.94;77.17;102065.06;5021814;28;45316;-57
2021/12/12 04:40:15;;;;;;;;;10.50;7.75;;;;;9.97;77.25;102072.84;5024038;28;45309;-58
2021/12/12 04:42:42;;;;;;;;;7.75;7.75;;;;;9.98;76.61;102072.78;5022405;28;45225;-58
2021/12/12 04:45:32;;;;;;;;;9.75;9.00;;;;;9.99;76.93;102069.25;5015105;28;47019;-58
2021/12/12 04:51:17;;;;;;;;;13.50;10.25;;;;;10.04;77.24;102071.72;5023233;28;45312;-57
2021/12/12 04:53:50;;;;;;;;;10.75;9.25;;;;;10.04;77.18;102082.25;5023036;28;45348;-58
2021/12/12 04:56:39;;;;;;;;;14.00;13.00;;;;;10.06;76.88;102075.16;5022968;28;45420;-58
2021/12/12 04:59:15;;;;;;;;;13.75;9.75;;;;;10.06;76.69;102076.00;5023178;28;45289;-58
2021/12/12 05:02:04;;;;;;;;;13.75;11.50;;;;;10.07;76.87;102082.13;5023361;28;45333;-59
2021/12/12 05:04:37;;;;;;;;;12.00;11.25;;;;;10.08;77.00;102083.84;5023345;28;45507;-58
2021/12/12 05:07:03;;;;;;;;;12.25;11.00;;;;;10.08;76.64;102089.13;5022568;28;45255;-58
2021/12/12 05:09:50;;;;;;;;;16.75;12.50;;;;;10.08;77.06;102094.38;5023289;28;45240;-58
2021/12/12 05:12:25;;;;;;;;;14.00;11.00;;;;;10.06;77.27;102093.59;5023186;28;45292;-59
2021/12/12 05:14:59;;;;;;;;;12.75;10.75;;;;;10.06;76.93;102085.69;5023281;28;45229;-55
2021/12/12 05:17:35;;;;;;;;;18.50;12.25;;;;;10.08;76.84;102091.75;5022736;28;46420;-57
2021/12/12 05:20:06;;;;;;;;;19.50;15.00;;;;;10.10;77.23;102091.69;5022846;28;45446;-58
2021/12/12 05:22:38;;;;;;;;;14.00;12.00;;;;;10.11;76.76;102089.03;5022856;28;45394;-57
2021/12/12 05:25:08;;;;;;;;;15.25;10.50;;;;;10.13;77.41;102094.22;5022906;28;45468;-57
2021/12/12 05:27:37;;;;;;;;;15.25;11.50;;;;;10.14;77.22;102095.94;5022758;28;45527;-58
2021/12/12 05:30:24;;;;;;;;;17.25;12.75;;;;;10.15;77.27;102106.41;5022901;28;45265;-57
2021/12/12 05:32:52;;;;;;;;;15.75;12.50;;;;;10.17;77.49;102104.59;5022928;28;45347;-58
2021/12/12 05:35:22;;;;;;;;;18.25;13.00;;;;;10.20;77.03;102106.28;5022475;28;45336;-58
2021/12/12 05:37:54;;;;;;;;;21.50;15.25;;;;;10.23;77.50;102106.19;5022475;28;46250;-57
2021/12/12 05:40:23;;;;;;;;;9.00;8.50;;;;;10.24;76.79;102105.25;5021575;28;45297;-58
2021/12/12 05:42:54;;;;;;;;;15.75;12.00;;;;;10.25;77.34;102106.97;5022842;28;45427;-57
2021/12/12 05:45:20;;;;;;;;;13.25;12.00;;;;;10.27;77.44;102110.44;5022816;28;45439;-57
2021/12/12 05:47:46;;;;;;;;;12.00;9.75;;;;;10.26;77.27;102109.53;5022075;28;46225;-57
2021/12/12 05:50:14;;;;;;;;;15.00;8.50;;;;;10.22;77.00;102107.06;5021415;28;45280;-58
2021/12/12 05:52:44;;;;;;;;;20.75;11.25;;;;;10.21;76.92;102111.47;5021827;28;45379;-57
2021/12/12 05:55:12;;;;;;;;;17.50;12.25;;;;;10.22;77.46;102113.22;5022805;28;45295;-57
2021/12/12 05:57:39;;;;;;;;;13.50;11.75;;;;;10.25;77.36;102117.50;5022225;28;45629;-57
2021/12/12 06:00:13;;;;;;;;;14.75;10.75;;;;;10.26;77.56;102104.28;5022340;28;46209;-57
2021/12/12 06:02:39;;;;;;;;;13.00;8.75;;;;;10.28;77.14;102114.78;5022146;28;45383;-56
2021/12/12 06:05:06;;;;;;;;;14.50;14.50;;;;;10.28;77.04;102113.00;5022323;28;45513;-57
2021/12/12 06:07:33;;;;;;;;;17.25;12.25;;;;;10.29;77.43;102125.25;5021603;28;47511;-57
2021/12/12 06:10:04;;;;;;;;;10.25;8.50;;;;;10.30;77.59;102134.03;5022352;28;45459;-57
2021/12/12 06:12:32;;;;;;;;;20.25;12.50;;;;;10.32;77.42;102138.31;5022294;28;45335;-56
2021/12/12 06:14:59;;;;;;;;;11.25;10.50;;;;;10.35;77.39;102142.63;5022151;28;45419;-55
2021/12/12 06:17:26;;;;;;;;;18.00;11.75;;;;;10.38;77.28;102144.28;5021904;28;45281;-57
2021/12/12 06:19:53;;;;;;;;;11.75;8.50;;;;;10.42;77.15;102145.88;5022027;28;45343;-57
2021/12/12 06:22:21;;;;;;;;;12.50;10.00;;;;;10.42;76.99;102145.88;5022134;28;45434;-57
2021/12/12 06:24:49;;;;;;;;;13.25;11.25;;;;;10.44;77.40;102149.34;5021842;28;45374;-57
2021/12/12 06:27:17;;;;;;;;;14.50;13.00;;;;;10.46;77.17;102155.41;5021602;28;45366;-58
2021/12/12 06:29:47;;;;;;;;;12.50;12.50;;;;;10.45;77.11;102154.53;5022059;28;45309;-58
2021/12/12 06:32:13;;;;;;;;;10.00;8.75;;;;;10.46;76.79;102152.75;5022110;28;45346;-58
2021/12/12 06:34:39;;;;;;;;;12.25;9.50;;;;;10.45;77.11;102148.41;5022017;28;45483;-57
2021/12/12 06:37:05;;;;;;;;;11.25;9.50;;;;;10.47;77.14;102159.75;5021675;28;45348;-58
2021/12/12 06:39:32;;;;;;;;;14.00;13.00;;;;;10.45;76.87;102167.72;5021736;28;45331;-57
2021/12/12 06:41:58;;;;;;;;;13.75;10.50;;;;;10.45;77.01;102161.59;5022083;28;45232;-56
2021/12/12 06:44:24;;;;;;;;;10.00;8.00;;;;;10.42;77.29;102167.81;5021931;28;45379;-57
2021/12/12 06:46:51;;;;;;;;;9.00;9.00;;;;;10.45;77.01;102174.75;5021387;28;45360;-58
2021/12/12 06:49:17;;;;;;;;;9.50;9.50;;;;;10.45;76.97;102153.69;5021354;28;45663;-59
2021/12/12 06:51:50;;;;;;;;;8.75;8.25;;;;;10.45;76.94;102169.50;5021701;28;45353;-58
2021/12/12 06:54:18;;;;;;;;;10.50;9.00;;;;;10.41;77.25;102171.34;5021047;28;45388;-57
2021/12/12 06:56:44;;;;;;;;;10.75;10.75;;;;;10.41;77.06;102186.31;5021316;28;46090;-58
2021/12/12 06:59:11;;;;;;;;;12.50;9.00;;;;;10.42;77.17;102180.97;5021289;28;45307;-58
2021/12/12 07:01:36;;;;;;;;;13.00;9.00;;;;;10.43;76.99;102188.00;5021547;28;45293;-58
2021/12/12 07:04:06;;;;;;;;;11.00;9.00;;;;;10.44;77.15;102184.44;5021466;28;45518;-58
2021/12/12 07:06:32;;;;;;;;;13.75;10.00;;;;;10.42;77.11;102196.78;5020871;28;45426;-58
2021/12/12 07:09:01;;;;;;;;;12.75;9.75;;;;;10.41;77.07;102192.44;5021106;28;45340;-58
2021/12/12 07:11:27;;;;;;;;;9.75;8.50;;;;;10.42;77.05;102196.78;5021635;28;45352;-58
2021/12/12 07:13:54;;;;;;;;;9.25;8.75;;;;;10.43;77.37;102195.91;5021190;28;45595;-58
2021/12/12 07:16:21;;;;;;;;;13.25;9.75;;;;;10.43;77.47;102195.91;5021216;28;46127;-57
2021/12/12 07:18:49;;;;;;;;;9.25;8.25;;;;;10.44;77.41;102191.47;5020826;28;45544;-58
2021/12/12 07:21:16;;;;;;;;;13.75;9.00;;;;;10.46;77.28;102198.41;5016593;28;45620;-58
2021/12/12 07:23:44;;;;;;;;;13.75;9.25;;;;;10.48;77.46;102199.19;5006266;28;45250;-57
2021/12/12 07:26:12;;;;;;;;;13.25;8.75;;;;;10.51;77.31;102200.91;5011000;28;45988;-57
2021/12/12 07:28:40;;;;;;;;;9.50;9.25;;;;;10.53;77.44;102206.97;5012085;28;45377;-60
2021/12/12 07:31:12;;;;;;;;;13.75;10.50;;;;;10.55;76.87;102207.75;5019342;28;45328;-60
2021/12/12 07:33:38;;;;;;;;;14.50;12.00;;;;;10.54;76.81;102211.31;5008068;28;45351;-60
2021/12/12 07:36:06;;;;;;;;;12.25;10.00;;;;;10.55;77.44;102213.03;5014144;28;45329;-60
2021/12/12 07:38:33;;;;;;;;;10.00;9.50;;;;;10.54;77.40;102206.03;5008025;28;45442;-59
2021/12/12 07:41:05;;;;;;;;;8.75;8.00;;;;;10.53;77.12;102207.81;5010196;28;45603;-59
2021/12/12 07:43:33;;;;;;;;;15.25;11.25;;;;;10.53;77.16;102204.31;5012098;28;45322;-59
2021/12/12 07:46:00;;;;;;;;;10.75;7.50;;;;;10.54;77.50;102216.59;5020074;28;45991;-59
2021/12/12 07:48:25;;;;;;;;;12.75;7.25;;;;;10.56;76.85;102217.38;5017462;28;45361;-59
2021/12/12 07:50:52;;;;;;;;;12.25;8.50;;;;;10.53;77.53;102217.50;5019949;28;45252;-59
2021/12/12 07:53:19;;;;;;;;;11.50;9.50;;;;;10.51;77.17;102206.16;5012566;28;45330;-59
2021/12/12 07:55:46;;;;;;;;;12.25;8.75;;;;;10.51;77.38;102216.69;5012063;28;45483;-59
2021/12/12 07:58:16;;;;;;;;;13.00;9.50;;;;;10.52;77.90;102221.06;5002037;28;45300;-59
2021/12/12 08:00:45;;;;;;;;;14.00;11.75;;;;;10.52;77.00;102219.28;5002599;28;45277;-59
2021/12/12 08:03:14;;;;;;;;;8.50;7.50;;;;;10.55;77.69;102220.94;5001885;28;45331;-59
2021/12/12 08:05:41;;;;;;;;;9.00;9.00;;;;;10.55;77.37;102221.78;5017283;28;45493;-59
2021/12/12 08:08:10;;;;;;;;;12.25;9.50;;;;;10.55;77.93;102219.16;5016021;28;45474;-59
2021/12/12 08:10:39;;;;;;;;;7.75;7.25;;;;;10.56;77.59;102226.13;5004176;28;45371;-59
2021/12/12 08:13:06;;;;;;;;;10.25;8.50;;;;;10.59;77.46;102233.09;5004255;28;45424;-59
2021/12/12 08:15:32;;;;;;;;;8.00;7.00;;;;;10.61;77.39;102228.63;5006291;28;46069;-61
2021/12/12 08:18:00;;;;;;;;;12.00;9.25;;;;;10.63;77.56;102230.28;5005151;28;45388;-62
2021/12/12 08:20:29;;;;;;;;;9.00;8.25;;;;;10.68;77.73;102234.53;5005830;28;45582;-63
2021/12/12 08:22:55;;;;;;;;;10.00;7.25;;;;;10.69;77.37;102234.47;5022370;28;45371;-63
2021/12/12 08:25:21;;;;;;;;;10.50;9.25;;;;;10.72;77.78;102238.78;5030651;28;45431;-63
2021/12/12 08:27:47;;;;;;;;;8.75;6.50;;;;;10.73;77.71;102236.06;5018343;28;45450;-63
2021/12/12 08:30:16;;;;;;;;;9.25;7.50;;;;;10.77;77.35;102239.47;5033408;28;45347;-62
2021/12/12 08:32:45;;;;;;;;;7.00;6.00;;;;;10.79;77.42;102242.91;5018585;28;45490;-63
2021/12/12 08:35:13;;;;;;;;;6.75;6.75;;;;;10.78;77.62;102247.31;5029659;28;45753;-63
2021/12/12 08:37:41;;;;;;;;;9.00;7.25;;;;;10.81;77.35;102244.56;5035970;28;45310;-63
2021/12/12 08:40:08;;;;;;;;;9.00;8.00;;;;;10.82;76.97;102248.94;5037002;28;45384;-61
2021/12/12 08:42:34;;;;;;;;;7.75;6.25;;;;;10.85;77.35;102247.97;5042783;28;45403;-64
2021/12/12 08:45:02;;;;;;;;;9.25;8.00;;;;;10.87;77.61;102251.41;5034062;28;46149;-60
2021/12/12 08:47:28;;;;;;;;;14.25;9.00;;;;;10.88;77.19;102259.25;5033471;28;45471;-61
2021/12/12 08:49:54;;;;;;;;;10.00;8.00;;;;;10.88;77.35;102253.97;5029770;28;45460;-61
2021/12/12 08:52:29;;;;;;;;;7.50;7.00;;;;;10.90;77.76;102260.06;5026954;28;45518;-63
2021/12/12 08:54:57;;;;;;;;;8.25;8.00;;;;;10.94;77.51;102257.31;5031203;28;45634;-63
2021/12/12 08:57:47;;;;;;;;;10.75;8.75;;;;;10.99;77.85;102255.38;5033219;28;45323;-62
2021/12/12 09:00:16;;;;;;;;;11.75;9.75;;;;;11.10;77.44;102261.09;5041385;28;45561;-63
2021/12/12 09:02:43;;;;;;;;;8.25;6.00;;;;;11.16;77.61;102260.88;5034264;28;45510;-64
2021/12/12 09:05:13;;;;;;;;;13.25;10.25;;;;;11.18;77.62;102265.19;5028580;28;46272;-63
2021/12/12 09:07:45;;;;;;;;;9.00;9.00;;;;;11.22;77.53;102271.22;5030669;28;45413;-63
2021/12/12 09:10:16;;;;;;;;;7.75;7.75;;;;;11.23;76.98;102270.28;5032397;28;45265;-63
2021/12/12 09:12:48;;;;;;;;;12.25;10.00;;;;;11.26;77.11;102270.16;5035743;28;45212;-63
2021/12/12 09:15:23;;;;;;;;;7.00;4.25;;;;;11.32;76.95;102280.50;5041675;28;46098;-63
2021/12/12 09:18:02;;;;;;;;;7.50;7.50;;;;;11.36;77.06;102278.59;5041161;28;45303;-62
2021/12/12 09:20:48;;;;;;;;;8.00;8.00;;;;;11.42;77.08;102271.31;5038203;28;45492;-62
2021/12/12 09:23:19;;;;;;;;;9.75;8.00;;;;;11.46;76.63;102272.94;5021894;28;45423;-62
2021/12/12 09:25:52;;;;;;;;;8.50;6.50;;;;;11.52;76.94;102276.22;5039837;28;46440;-64
2021/12/12 09:28:39;;;;;;;;;8.50;8.00;;;;;11.58;76.63;102279.50;5038427;28;45303;-64
2021/12/12 09:31:10;;;;;;;;;7.00;7.00;;;;;11.61;76.42;102284.66;5029696;28;45295;-64
2021/12/12 09:34:02;;;;;;;;;9.50;7.00;;;;;11.64;76.60;102278.41;5031526;28;45260;-64
2021/12/12 09:36:34;;;;;;;;;7.75;7.00;;;;;11.68;76.68;102279.97;5030729;28;45999;-65
2021/12/12 09:39:12;;;;;;;;;3.00;2.00;;;;;11.69;76.59;102282.59;5031139;28;45292;-64
2021/12/12 09:41:56;;;;;;;;;10.75;10.75;;;;;11.69;76.66;102281.69;5030348;28;45483;-65
2021/12/12 09:45:00;;;;;;;;;11.25;9.00;;;;;11.71;76.57;102282.53;5034383;28;45680;-65
2021/12/12 09:48:13;;;;;;;;;12.00;10.25;;;;;11.72;76.66;102286.88;5020106;28;46211;-63
2021/12/12 09:54:00;;;;;;;;;11.00;9.00;;;;;11.83;77.05;102287.34;5031169;28;45442;-63
2021/12/12 09:56:25;;;;;;;;;11.25;9.25;;;;;11.88;76.64;102279.25;5030276;28;45513;-63
2021/12/12 09:59:03;;;;;;;;;8.25;8.25;;;;;11.92;76.77;102276.41;5031318;28;45287;-65
2021/12/12 10:01:46;;;;;;;;;10.50;9.50;;;;;12.00;76.49;102281.38;5030113;28;45162;-65
2021/12/12 10:04:20;;;;;;;;;8.50;8.00;;;;;12.05;76.30;102283.84;5030560;28;45314;-66
2021/12/12 10:07:04;;;;;;;;;8.00;7.25;;;;;12.08;76.19;102279.28;5030202;28;45370;-64
2021/12/12 10:09:38;;;;;;;;;8.50;7.00;;;;;12.12;76.21;102274.75;5026501;28;45566;-65
2021/12/12 10:12:26;;;;;;;;;9.50;8.25;;;;;12.17;76.06;102291.28;5032496;28;45350;-65
2021/12/12 10:14:58;;;;;;;;;7.75;6.50;;;;;12.19;76.07;102277.06;5028399;28;45257;-64
2021/12/12 10:18:17;;;;;;;;;8.75;5.50;;;;;12.23;76.14;102278.66;5030080;28;45356;-64
2021/12/12 10:21:01;;;;;;;;;11.25;10.25;;;;;12.30;75.65;102282.75;4999148;28;45507;-61
2021/12/12 10:24:04;;;;;;;;;13.25;9.25;;;;;12.32;75.49;102280.03;5006465;28;45388;-62
2021/12/12 10:26:42;;;;;;;;;6.50;4.50;;;;;12.34;75.47;102282.66;5025351;28;45261;-63
2021/12/12 10:29:16;;;;;;;;;9.50;9.50;;;;;12.35;75.46;102287.00;5029579;28;45589;-64
2021/12/12 10:31:53;;;;;;;;;9.75;8.75;;;;;12.42;75.52;102284.03;5029601;28;48138;-62
2021/12/12 10:34:35;;;;;;;;;9.75;9.75;;;;;12.52;75.57;102293.28;5029175;28;45329;-62
2021/12/12 10:37:14;;;;;;;;;10.00;8.25;;;;;12.64;75.29;102289.28;5028509;28;45926;-63
2021/12/12 10:39:53;;;;;;;;;11.75;9.00;;;;;12.76;75.10;102296.66;5030215;28;45430;-62
2021/12/12 10:42:27;;;;;;;;;16.25;10.75;;;;;12.88;74.86;102291.78;5030582;28;46080;-63
2021/12/12 10:44:58;;;;;;;;;12.75;9.00;;;;;12.91;74.70;102287.19;5044470;28;45509;-63
2021/12/12 10:47:43;;;;;;;;;9.50;9.00;;;;;12.95;74.58;102285.25;5029781;28;45283;-63
2021/12/12 10:50:21;;;;;;;;;11.75;10.00;;;;;13.00;74.44;102288.56;5026818;28;45566;-64
2021/12/12 10:53:08;;;;;;;;;10.00;9.50;;;;;13.07;74.33;102279.44;5032295;28;45449;-63
2021/12/12 10:55:41;;;;;;;;;10.00;9.25;;;;;13.14;74.31;102284.38;5022940;28;45316;-62
2021/12/12 10:58:15;;;;;;;;;10.00;10.00;;;;;13.20;73.80;102285.09;5035789;28;45426;-63
2021/12/12 11:00:47;;;;;;;;;13.25;10.50;;;;;13.19;74.03;102281.50;5039449;28;45636;-62
2021/12/12 11:03:31;;;;;;;;;12.00;9.00;;;;;13.17;73.49;102290.47;5032738;28;45952;-67
2021/12/12 11:06:15;;;;;;;;;10.25;8.25;;;;;13.15;73.61;102287.88;5019781;28;45238;-67
2021/12/12 11:08:55;;;;;;;;;11.50;11.50;;;;;13.18;73.76;102285.09;5031253;28;45558;-60
2021/12/12 11:11:26;;;;;;;;;12.50;11.00;;;;;13.23;73.65;102287.56;5034079;28;45444;-63
2021/12/12 11:14:06;;;;;;;;;11.25;11.25;;;;;13.28;73.72;102283.81;5029033;28;45272;-64
2021/12/12 11:16:42;;;;;;;;;12.25;9.25;;;;;13.32;73.32;102282.72;5029370;28;45182;-68
2021/12/12 11:19:26;;;;;;;;;11.75;8.25;;;;;13.31;73.16;102282.78;5033280;28;45578;-64
2021/12/12 11:22:07;;;;;;;;;12.00;11.75;;;;;13.34;73.13;102282.63;5007401;28;45542;-63
2021/12/12 11:24:41;;;;;;;;;11.50;7.75;;;;;13.38;73.06;102287.72;5021229;28;45303;-66
2021/12/12 11:27:19;;;;;;;;;7.00;6.00;;;;;13.39;72.99;102291.22;5013433;28;45324;-58
2021/12/12 11:29:57;;;;;;;;;10.00;8.75;;;;;13.36;72.92;102289.59;5001321;28;45307;-59
2021/12/12 11:32:31;;;;;;;;;9.00;9.00;;;;;13.37;73.00;102293.09;5023940;28;45338;-65
2021/12/12 11:34:59;;;;;;;;;8.25;4.75;;;;;13.35;73.08;102297.59;5019953;28;47507;-66
2021/12/12 11:37:48;;;;;;;;;12.75;10.00;;;;;13.32;73.13;102289.78;5013638;28;45416;-66
2021/12/12 11:40:56;;;;;;;;;7.00;6.25;;;;;13.27;73.05;102287.38;5010716;28;45323;-64
2021/12/12 11:43:34;;;;;;;;;7.75;7.00;;;;;13.20;73.20;102283.28;5008946;28;45220;-64
2021/12/12 11:46:19;;;;;;;;;8.25;8.00;;;;;13.20;73.26;102288.59;5012294;28;46149;-67
2021/12/12 11:48:54;;;;;;;;;9.50;9.00;;;;;13.22;73.59;102283.22;5012946;28;45408;-63
2021/12/12 11:51:34;;;;;;;;;12.00;8.50;;;;;13.24;73.96;102286.66;5010132;28;45446;-65
2021/12/12 11:54:07;;;;;;;;;11.25;9.25;;;;;13.24;74.02;102279.56;5007443;28;45344;-62
2021/12/12 11:56:45;;;;;;;;;11.25;11.00;;;;;13.32;74.06;102284.50;5022547;28;46181;-69
2021/12/12 11:59:30;;;;;;;;;10.25;10.00;;;;;13.36;73.78;102283.44;5010641;28;45225;-63
2021/12/12 12:02:23;;;;;;;;;17.50;12.75;;;;;13.41;74.07;102286.72;5013907;28;45370;-62